sensor_id;sensor_type;location;lat;lon;timestamp;pressure;altitude;pressure_sealevel;temperature;humidity
7962;BME280;4026;43.652;24.906;2022-09-09T00:00:13;99108.97;;;21.77;61.49
7962;BME280;4026;43.652;24.906;2022-09-09T00:02:43;99126.31;;;21.70;61.46
7962;BME280;4026;43.652;24.906;2022-09-09T00:05:18;99122.53;;;21.73;61.88
7962;BME280;4026;43.652;24.906;2022-09-09T00:07:50;99128.66;;;21.65;61.56
7962;BME280;4026;43.652;24.906;2022-09-09T00:10:23;99129.47;;;21.65;62.06
7962;BME280;4026;43.652;24.906;2022-09-09T00:12:58;99126.41;;;21.62;61.92
7962;BME280;4026;43.652;24.906;2022-09-09T00:15:32;99127.03;;;21.49;62.58
7962;BME280;4026;43.652;24.906;2022-09-09T00:18:08;99119.16;;;21.42;62.32
7962;BME280;4026;43.652;24.906;2022-09-09T00:20:46;99129.91;;;21.39;61.54
7962;BME280;4026;43.652;24.906;2022-09-09T00:23:20;99123.91;;;21.39;61.70
7962;BME280;4026;43.652;24.906;2022-09-09T00:25:54;99130.78;;;21.46;61.04
7962;BME280;4026;43.652;24.906;2022-09-09T00:28:26;99130.78;;;21.46;62.76
7962;BME280;4026;43.652;24.906;2022-09-09T00:30:55;99133.16;;;21.41;62.92
7962;BME280;4026;43.652;24.906;2022-09-09T00:33:24;99132.69;;;21.38;63.34
7962;BME280;4026;43.652;24.906;2022-09-09T00:35:57;99132.22;;;21.34;63.53
7962;BME280;4026;43.652;24.906;2022-09-09T00:38:26;99136.53;;;21.27;63.80
7962;BME280;4026;43.652;24.906;2022-09-09T00:41:00;99123.97;;;21.16;64.60
7962;BME280;4026;43.652;24.906;2022-09-09T00:43:31;99122.94;;;21.02;64.51
7962;BME280;4026;43.652;24.906;2022-09-09T00:46:16;99118.19;;;21.06;64.98
7962;BME280;4026;43.652;24.906;2022-09-09T00:48:53;99119.84;;;21.07;64.27
7962;BME280;4026;43.652;24.906;2022-09-09T00:51:34;99116.16;;;21.01;65.11
7962;BME280;4026;43.652;24.906;2022-09-09T00:54:18;99104.13;;;21.00;63.07
7962;BME280;4026;43.652;24.906;2022-09-09T00:56:59;99100.53;;;21.01;62.94
7962;BME280;4026;43.652;24.906;2022-09-09T00:59:34;99100.19;;;21.04;63.42
7962;BME280;4026;43.652;24.906;2022-09-09T01:02:14;99105.69;;;21.24;62.46
7962;BME280;4026;43.652;24.906;2022-09-09T01:04:42;99094.56;;;21.30;61.53
7962;BME280;4026;43.652;24.906;2022-09-09T01:07:16;99088.81;;;21.50;60.31
7962;BME280;4026;43.652;24.906;2022-09-09T01:09:52;99092.31;;;21.57;59.76
7962;BME280;4026;43.652;24.906;2022-09-09T01:12:40;99081.66;;;21.52;59.93
7962;BME280;4026;43.652;24.906;2022-09-09T01:15:11;99085.75;;;21.61;60.23
7962;BME280;4026;43.652;24.906;2022-09-09T01:17:46;99082.97;;;21.62;59.46
7962;BME280;4026;43.652;24.906;2022-09-09T01:20:19;99086.81;;;21.66;59.83
7962;BME280;4026;43.652;24.906;2022-09-09T01:22:59;99091.84;;;21.68;59.48
7962;BME280;4026;43.652;24.906;2022-09-09T01:28:33;99083.06;;;21.69;58.89
7962;BME280;4026;43.652;24.906;2022-09-09T01:31:03;99085.91;;;21.74;58.85
7962;BME280;4026;43.652;24.906;2022-09-09T01:33:30;99088.31;;;21.76;60.07
7962;BME280;4026;43.652;24.906;2022-09-09T01:36:02;99086.66;;;21.68;59.83
7962;BME280;4026;43.652;24.906;2022-09-09T01:38:32;99091.97;;;21.60;60.10
7962;BME280;4026;43.652;24.906;2022-09-09T01:41:00;99085.59;;;21.47;61.10
7962;BME280;4026;43.652;24.906;2022-09-09T01:43:28;99089.09;;;21.40;60.88
7962;BME280;4026;43.652;24.906;2022-09-09T01:45:59;99085.88;;;21.38;61.59
7962;BME280;4026;43.652;24.906;2022-09-09T01:48:28;99085.75;;;21.16;61.77
7962;BME280;4026;43.652;24.906;2022-09-09T01:50:55;99081.44;;;21.09;62.10
7962;BME280;4026;43.652;24.906;2022-09-09T01:53:22;99090.78;;;21.18;61.73
7962;BME280;4026;43.652;24.906;2022-09-09T01:55:57;99086.91;;;21.14;61.01
7962;BME280;4026;43.652;24.906;2022-09-09T01:58:34;99084.75;;;21.17;60.79
7962;BME280;4026;43.652;24.906;2022-09-09T02:01:15;99086.13;;;21.28;60.40
7962;BME280;4026;43.652;24.906;2022-09-09T02:03:44;99081.28;;;21.25;60.80
7962;BME280;4026;43.652;24.906;2022-09-09T02:06:20;99081.19;;;21.18;61.79
7962;BME280;4026;43.652;24.906;2022-09-09T02:08:54;99082.72;;;21.13;62.82
7962;BME280;4026;43.652;24.906;2022-09-09T02:11:23;99084.94;;;20.86;62.44
7962;BME280;4026;43.652;24.906;2022-09-09T02:13:53;99090.22;;;20.55;63.95
7962;BME280;4026;43.652;24.906;2022-09-09T02:16:26;99086.41;;;20.66;63.61
7962;BME280;4026;43.652;24.906;2022-09-09T02:18:59;99088.75;;;20.75;64.50
7962;BME280;4026;43.652;24.906;2022-09-09T02:21:29;99089.63;;;20.68;63.56
7962;BME280;4026;43.652;24.906;2022-09-09T02:23:58;99090.34;;;20.62;64.02
7962;BME280;4026;43.652;24.906;2022-09-09T02:26:31;99086.88;;;20.46;63.96
7962;BME280;4026;43.652;24.906;2022-09-09T02:29:01;99082.88;;;20.35;64.66
7962;BME280;4026;43.652;24.906;2022-09-09T02:31:31;99080.34;;;20.27;64.50
7962;BME280;4026;43.652;24.906;2022-09-09T02:34:02;99085.38;;;20.29;64.42
7962;BME280;4026;43.652;24.906;2022-09-09T02:36:32;99080.19;;;20.29;64.35
7962;BME280;4026;43.652;24.906;2022-09-09T02:39:00;99076.03;;;20.20;65.67
7962;BME280;4026;43.652;24.906;2022-09-09T02:41:31;99078.31;;;20.15;66.32
7962;BME280;4026;43.652;24.906;2022-09-09T02:43:59;99087.31;;;20.27;65.92
7962;BME280;4026;43.652;24.906;2022-09-09T02:46:42;99078.22;;;20.31;65.70
7962;BME280;4026;43.652;24.906;2022-09-09T02:49:19;99077.59;;;20.29;65.84
7962;BME280;4026;43.652;24.906;2022-09-09T02:51:53;99080.13;;;20.14;64.92
7962;BME280;4026;43.652;24.906;2022-09-09T02:54:27;99081.22;;;20.20;64.98
7962;BME280;4026;43.652;24.906;2022-09-09T02:57:01;99082.53;;;20.16;65.17
7962;BME280;4026;43.652;24.906;2022-09-09T02:59:30;99079.28;;;20.22;65.03
7962;BME280;4026;43.652;24.906;2022-09-09T03:01:58;99081.56;;;20.17;65.14
7962;BME280;4026;43.652;24.906;2022-09-09T03:04:26;99072.56;;;20.04;65.71
7962;BME280;4026;43.652;24.906;2022-09-09T03:06:53;99081.31;;;20.03;65.72
7962;BME280;4026;43.652;24.906;2022-09-09T03:09:20;99076.06;;;20.11;65.27
7962;BME280;4026;43.652;24.906;2022-09-09T03:11:47;99074.75;;;20.16;65.59
7962;BME280;4026;43.652;24.906;2022-09-09T03:14:14;99069.72;;;20.14;65.75
7962;BME280;4026;43.652;24.906;2022-09-09T03:16:42;99074.22;;;19.97;65.65
7962;BME280;4026;43.652;24.906;2022-09-09T03:19:10;99076.13;;;20.03;66.31
7962;BME280;4026;43.652;24.906;2022-09-09T03:21:37;99068.28;;;20.11;64.18
7962;BME280;4026;43.652;24.906;2022-09-09T03:24:04;99066.34;;;20.13;63.68
7962;BME280;4026;43.652;24.906;2022-09-09T03:26:32;99068.63;;;20.31;63.04
7962;BME280;4026;43.652;24.906;2022-09-09T03:28:59;99068.75;;;20.38;62.49
7962;BME280;4026;43.652;24.906;2022-09-09T03:31:27;99068.03;;;20.44;62.10
7962;BME280;4026;43.652;24.906;2022-09-09T03:33:55;99073.59;;;20.41;63.53
7962;BME280;4026;43.652;24.906;2022-09-09T03:36:25;99075.03;;;20.44;63.34
7962;BME280;4026;43.652;24.906;2022-09-09T03:38:53;99072.88;;;20.47;62.51
7962;BME280;4026;43.652;24.906;2022-09-09T03:41:20;99079.03;;;20.54;61.53
7962;BME280;4026;43.652;24.906;2022-09-09T03:43:49;99074.75;;;20.62;62.22
7962;BME280;4026;43.652;24.906;2022-09-09T03:46:17;99084.78;;;20.65;61.55
7962;BME280;4026;43.652;24.906;2022-09-09T03:48:44;99088.38;;;20.64;61.28
7962;BME280;4026;43.652;24.906;2022-09-09T03:51:11;99088.66;;;20.69;61.55
7962;BME280;4026;43.652;24.906;2022-09-09T03:53:39;99092.88;;;20.70;61.23
7962;BME280;4026;43.652;24.906;2022-09-09T03:56:06;99090.91;;;20.72;61.51
7962;BME280;4026;43.652;24.906;2022-09-09T03:58:35;99092.81;;;20.78;60.96
7962;BME280;4026;43.652;24.906;2022-09-09T04:01:03;99093.09;;;20.83;61.13
7962;BME280;4026;43.652;24.906;2022-09-09T04:03:31;99087.06;;;20.83;61.10
7962;BME280;4026;43.652;24.906;2022-09-09T04:06:00;99091.44;;;20.82;60.93
7962;BME280;4026;43.652;24.906;2022-09-09T04:08:27;99093.34;;;20.88;60.81
7962;BME280;4026;43.652;24.906;2022-09-09T04:10:57;99087.88;;;20.83;61.50
7962;BME280;4026;43.652;24.906;2022-09-09T04:13:24;99099.53;;;20.87;61.63
7962;BME280;4026;43.652;24.906;2022-09-09T04:15:52;99092.53;;;20.88;62.54
7962;BME280;4026;43.652;24.906;2022-09-09T04:18:20;99092.03;;;20.92;60.87
7962;BME280;4026;43.652;24.906;2022-09-09T04:20:47;99089.22;;;20.94;60.72
7962;BME280;4026;43.652;24.906;2022-09-09T04:23:14;99088.34;;;21.01;60.18
7962;BME280;4026;43.652;24.906;2022-09-09T04:25:44;99093.75;;;21.15;59.97
7962;BME280;4026;43.652;24.906;2022-09-09T04:28:14;99088.09;;;21.26;60.45
7962;BME280;4026;43.652;24.906;2022-09-09T04:30:41;99085.75;;;21.31;59.16
7962;BME280;4026;43.652;24.906;2022-09-09T04:33:08;99085.50;;;21.41;58.79
7962;BME280;4026;43.652;24.906;2022-09-09T04:35:35;99078.16;;;21.44;61.00
7962;BME280;4026;43.652;24.906;2022-09-09T04:38:02;99085.97;;;21.44;58.88
7962;BME280;4026;43.652;24.906;2022-09-09T04:40:30;99089.66;;;21.50;59.54
7962;BME280;4026;43.652;24.906;2022-09-09T04:42:58;99094.28;;;21.55;60.09
7962;BME280;4026;43.652;24.906;2022-09-09T04:45:26;99089.66;;;21.50;59.58
7962;BME280;4026;43.652;24.906;2022-09-09T04:47:53;99094.56;;;21.60;60.66
7962;BME280;4026;43.652;24.906;2022-09-09T04:50:20;99091.84;;;21.68;59.00
7962;BME280;4026;43.652;24.906;2022-09-09T04:52:47;99097.94;;;21.75;59.08
7962;BME280;4026;43.652;24.906;2022-09-09T04:55:14;99096.84;;;21.84;60.53
7962;BME280;4026;43.652;24.906;2022-09-09T04:57:41;99099.19;;;21.79;58.85
7962;BME280;4026;43.652;24.906;2022-09-09T05:00:09;99098.91;;;21.89;57.77
7962;BME280;4026;43.652;24.906;2022-09-09T05:02:38;99097.00;;;21.98;58.70
7962;BME280;4026;43.652;24.906;2022-09-09T05:05:06;99102.03;;;21.99;59.70
7962;BME280;4026;43.652;24.906;2022-09-09T05:07:33;99099.06;;;22.02;59.12
7962;BME280;4026;43.652;24.906;2022-09-09T05:09:59;99087.78;;;22.17;60.48
7962;BME280;4026;43.652;24.906;2022-09-09T05:12:28;99091.34;;;22.30;59.72
7962;BME280;4026;43.652;24.906;2022-09-09T05:14:55;99098.09;;;22.46;59.56
7962;BME280;4026;43.652;24.906;2022-09-09T05:17:22;99100.63;;;22.61;59.52
7962;BME280;4026;43.652;24.906;2022-09-09T05:19:51;99090.66;;;22.71;58.27
7962;BME280;4026;43.652;24.906;2022-09-09T05:22:19;99089.69;;;22.72;56.75
7962;BME280;4026;43.652;24.906;2022-09-09T05:24:46;99088.16;;;22.85;56.84
7962;BME280;4026;43.652;24.906;2022-09-09T05:27:16;99078.09;;;23.03;56.87
7962;BME280;4026;43.652;24.906;2022-09-09T05:29:43;99083.97;;;23.18;58.20
7962;BME280;4026;43.652;24.906;2022-09-09T05:32:10;99086.28;;;23.35;57.39
7962;BME280;4026;43.652;24.906;2022-09-09T05:34:37;99081.78;;;23.63;56.64
7962;BME280;4026;43.652;24.906;2022-09-09T05:37:06;99084.72;;;23.88;56.14
7962;BME280;4026;43.652;24.906;2022-09-09T05:39:33;99091.56;;;24.03;55.42
7962;BME280;4026;43.652;24.906;2022-09-09T05:42:01;99096.81;;;24.09;53.43
7962;BME280;4026;43.652;24.906;2022-09-09T05:44:30;99087.63;;;24.27;55.19
7962;BME280;4026;43.652;24.906;2022-09-09T05:46:57;99087.03;;;24.38;54.71
7962;BME280;4026;43.652;24.906;2022-09-09T05:49:24;99090.44;;;24.52;53.54
7962;BME280;4026;43.652;24.906;2022-09-09T05:51:51;99098.50;;;24.63;53.38
7962;BME280;4026;43.652;24.906;2022-09-09T05:54:20;99099.13;;;24.79;54.12
7962;BME280;4026;43.652;24.906;2022-09-09T05:56:47;99101.69;;;24.92;52.54
7962;BME280;4026;43.652;24.906;2022-09-09T05:59:15;99111.34;;;24.98;52.67
7962;BME280;4026;43.652;24.906;2022-09-09T06:01:42;99114.19;;;24.97;51.32
7962;BME280;4026;43.652;24.906;2022-09-09T06:04:10;99109.34;;;25.00;51.60
7962;BME280;4026;43.652;24.906;2022-09-09T06:06:38;99107.69;;;25.13;52.79
7962;BME280;4026;43.652;24.906;2022-09-09T06:09:06;99104.50;;;25.24;49.97
7962;BME280;4026;43.652;24.906;2022-09-09T06:11:37;99103.66;;;25.30;51.52
7962;BME280;4026;43.652;24.906;2022-09-09T06:14:05;99107.44;;;25.47;52.57
7962;BME280;4026;43.652;24.906;2022-09-09T06:16:32;99108.34;;;25.73;50.56
7962;BME280;4026;43.652;24.906;2022-09-09T06:19:00;99115.78;;;25.76;50.54
7962;BME280;4026;43.652;24.906;2022-09-09T06:21:30;99114.75;;;25.77;48.86
7962;BME280;4026;43.652;24.906;2022-09-09T06:23:58;99107.91;;;25.76;50.17
7962;BME280;4026;43.652;24.906;2022-09-09T06:26:25;99105.31;;;26.14;51.85
7962;BME280;4026;43.652;24.906;2022-09-09T06:28:55;99113.59;;;26.18;47.65
7962;BME280;4026;43.652;24.906;2022-09-09T06:31:25;99121.66;;;26.16;47.74
7962;BME280;4026;43.652;24.906;2022-09-09T06:33:56;99119.31;;;26.33;47.48
7962;BME280;4026;43.652;24.906;2022-09-09T06:36:25;99107.06;;;26.59;48.35
7962;BME280;4026;43.652;24.906;2022-09-09T06:38:52;99112.50;;;26.82;46.55
7962;BME280;4026;43.652;24.906;2022-09-09T06:41:20;99119.94;;;26.85;45.96
7962;BME280;4026;43.652;24.906;2022-09-09T06:43:48;99122.31;;;27.12;47.82
7962;BME280;4026;43.652;24.906;2022-09-09T06:46:18;99117.69;;;27.33;48.37
7962;BME280;4026;43.652;24.906;2022-09-09T06:48:45;99112.56;;;27.56;45.62
7962;BME280;4026;43.652;24.906;2022-09-09T06:51:14;99118.97;;;27.60;43.85
7962;BME280;4026;43.652;24.906;2022-09-09T06:53:43;99117.06;;;27.86;44.80
7962;BME280;4026;43.652;24.906;2022-09-09T06:56:28;99121.50;;;28.15;45.56
7962;BME280;4026;43.652;24.906;2022-09-09T06:58:57;99114.25;;;28.41;46.65
7962;BME280;4026;43.652;24.906;2022-09-09T07:01:29;99124.25;;;28.51;45.59
7962;BME280;4026;43.652;24.906;2022-09-09T07:03:58;99114.25;;;28.41;44.75
7962;BME280;4026;43.652;24.906;2022-09-09T07:06:27;99114.91;;;28.66;46.41
7962;BME280;4026;43.652;24.906;2022-09-09T07:08:55;99107.91;;;28.84;45.60
7962;BME280;4026;43.652;24.906;2022-09-09T07:11:24;99110.88;;;28.99;45.43
7962;BME280;4026;43.652;24.906;2022-09-09T07:13:52;99122.66;;;28.97;43.56
7962;BME280;4026;43.652;24.906;2022-09-09T07:16:21;99139.25;;;28.97;46.82
7962;BME280;4026;43.652;24.906;2022-09-09T07:18:51;99130.22;;;29.28;44.53
7962;BME280;4026;43.652;24.906;2022-09-09T07:21:23;99123.38;;;29.16;44.15
7962;BME280;4026;43.652;24.906;2022-09-09T07:23:51;99123.13;;;28.82;42.58
7962;BME280;4026;43.652;24.906;2022-09-09T07:26:20;99126.00;;;28.92;44.23
7962;BME280;4026;43.652;24.906;2022-09-09T07:28:47;99118.94;;;29.04;42.80
7962;BME280;4026;43.652;24.906;2022-09-09T07:31:16;99125.50;;;29.42;46.21
7962;BME280;4026;43.652;24.906;2022-09-09T07:33:43;99126.41;;;29.48;44.56
7962;BME280;4026;43.652;24.906;2022-09-09T07:36:17;99134.19;;;29.43;42.61
7962;BME280;4026;43.652;24.906;2022-09-09T07:38:45;99126.44;;;29.36;44.85
7962;BME280;4026;43.652;24.906;2022-09-09T07:41:14;99140.13;;;29.62;42.59
7962;BME280;4026;43.652;24.906;2022-09-09T07:43:44;99139.03;;;29.86;41.69
7962;BME280;4026;43.652;24.906;2022-09-09T07:46:12;99141.56;;;30.10;41.51
7962;BME280;4026;43.652;24.906;2022-09-09T07:48:42;99139.38;;;30.35;43.50
7962;BME280;4026;43.652;24.906;2022-09-09T07:51:11;99149.69;;;30.54;40.68
7962;BME280;4026;43.652;24.906;2022-09-09T07:53:40;99140.34;;;30.63;43.06
7962;BME280;4026;43.652;24.906;2022-09-09T07:56:08;99140.53;;;30.90;40.02
7962;BME280;4026;43.652;24.906;2022-09-09T07:58:36;99131.53;;;31.08;42.58
7962;BME280;4026;43.652;24.906;2022-09-09T08:01:08;99123.47;;;31.37;41.07
7962;BME280;4026;43.652;24.906;2022-09-09T08:03:35;99132.13;;;31.54;39.34
7962;BME280;4026;43.652;24.906;2022-09-09T08:06:02;99126.84;;;31.15;37.70
7962;BME280;4026;43.652;24.906;2022-09-09T08:08:29;99130.69;;;31.24;40.36
7962;BME280;4026;43.652;24.906;2022-09-09T08:11:06;99124.50;;;31.57;38.69
7962;BME280;4026;43.652;24.906;2022-09-09T08:13:35;99134.50;;;31.77;38.39
7962;BME280;4026;43.652;24.906;2022-09-09T08:16:06;99129.50;;;32.03;39.23
7962;BME280;4026;43.652;24.906;2022-09-09T08:18:34;99122.31;;;31.76;37.18
7962;BME280;4026;43.652;24.906;2022-09-09T08:21:06;99121.94;;;31.90;39.31
7962;BME280;4026;43.652;24.906;2022-09-09T08:23:34;99120.03;;;31.85;38.05
7962;BME280;4026;43.652;24.906;2022-09-09T08:26:06;99119.72;;;31.82;37.48
7962;BME280;4026;43.652;24.906;2022-09-09T08:28:34;99128.88;;;31.47;36.30
7962;BME280;4026;43.652;24.906;2022-09-09T08:31:09;99117.78;;;31.50;39.00
7962;BME280;4026;43.652;24.906;2022-09-09T08:33:37;99114.16;;;31.78;39.91
7962;BME280;4026;43.652;24.906;2022-09-09T08:36:05;99107.72;;;31.96;39.69
7962;BME280;4026;43.652;24.906;2022-09-09T08:38:34;99097.13;;;31.42;37.26
7962;BME280;4026;43.652;24.906;2022-09-09T08:41:22;99093.22;;;31.76;37.59
7962;BME280;4026;43.652;24.906;2022-09-09T08:44:01;99098.38;;;31.61;37.95
7962;BME280;4026;43.652;24.906;2022-09-09T08:46:34;99096.84;;;31.65;39.47
7962;BME280;4026;43.652;24.906;2022-09-09T08:49:16;99104.47;;;31.89;39.22
7962;BME280;4026;43.652;24.906;2022-09-09T08:51:46;99099.22;;;32.21;37.78
7962;BME280;4026;43.652;24.906;2022-09-09T08:54:15;99111.97;;;31.97;38.76
7962;BME280;4026;43.652;24.906;2022-09-09T08:56:44;99112.06;;;32.07;35.48
7962;BME280;4026;43.652;24.906;2022-09-09T08:59:13;99104.25;;;32.22;40.19
7962;BME280;4026;43.652;24.906;2022-09-09T09:02:00;99106.53;;;32.41;37.21
7962;BME280;4026;43.652;24.906;2022-09-09T09:04:38;99106.91;;;32.55;35.46
7962;BME280;4026;43.652;24.906;2022-09-09T09:07:18;99112.94;;;32.82;34.16
7962;BME280;4026;43.652;24.906;2022-09-09T09:09:56;99103.28;;;33.08;40.97
7962;BME280;4026;43.652;24.906;2022-09-09T09:12:29;99102.03;;;33.26;35.34
7962;BME280;4026;43.652;24.906;2022-09-09T09:14:59;99108.91;;;33.17;34.37
7962;BME280;4026;43.652;24.906;2022-09-09T09:17:27;99104.97;;;33.30;37.63
7962;BME280;4026;43.652;24.906;2022-09-09T09:19:58;99099.63;;;33.25;36.61
7962;BME280;4026;43.652;24.906;2022-09-09T09:22:30;99102.81;;;33.17;35.70
7962;BME280;4026;43.652;24.906;2022-09-09T09:25:03;99091.03;;;32.97;35.15
7962;BME280;4026;43.652;24.906;2022-09-09T09:27:40;99094.94;;;33.42;36.24
7962;BME280;4026;43.652;24.906;2022-09-09T09:30:15;99098.09;;;33.34;34.01
7962;BME280;4026;43.652;24.906;2022-09-09T09:32:53;99092.91;;;33.65;36.37
7962;BME280;4026;43.652;24.906;2022-09-09T09:35:21;99096.63;;;33.79;36.77
7962;BME280;4026;43.652;24.906;2022-09-09T09:37:49;99089.75;;;33.93;34.58
7962;BME280;4026;43.652;24.906;2022-09-09T09:40:18;99099.31;;;33.89;35.93
7962;BME280;4026;43.652;24.906;2022-09-09T09:42:52;99085.56;;;34.08;36.42
7962;BME280;4026;43.652;24.906;2022-09-09T09:45:28;99084.47;;;33.98;35.13
7962;BME280;4026;43.652;24.906;2022-09-09T09:48:01;99072.66;;;33.38;34.08
7962;BME280;4026;43.652;24.906;2022-09-09T09:50:29;99078.47;;;33.35;35.51
7962;BME280;4026;43.652;24.906;2022-09-09T09:52:59;99082.81;;;33.56;34.70
7962;BME280;4026;43.652;24.906;2022-09-09T09:55:28;99082.19;;;33.39;33.80
7962;BME280;4026;43.652;24.906;2022-09-09T09:58:03;99078.06;;;33.79;39.12
7962;BME280;4026;43.652;24.906;2022-09-09T10:00:30;99079.44;;;34.12;35.55
7962;BME280;4026;43.652;24.906;2022-09-09T10:02:59;99080.50;;;34.16;36.11
7962;BME280;4026;43.652;24.906;2022-09-09T10:05:28;99083.44;;;34.20;35.38
7962;BME280;4026;43.652;24.906;2022-09-09T10:08:03;99080.25;;;34.08;35.73
7962;BME280;4026;43.652;24.906;2022-09-09T10:10:49;99085.25;;;33.84;33.93
7962;BME280;4026;43.652;24.906;2022-09-09T10:13:24;99082.31;;;33.75;35.34
7962;BME280;4026;43.652;24.906;2022-09-09T10:16:02;99074.31;;;33.59;35.84
7962;BME280;4026;43.652;24.906;2022-09-09T10:18:44;99077.81;;;33.75;39.13
7962;BME280;4026;43.652;24.906;2022-09-09T10:21:24;99075.69;;;33.88;36.25
7962;BME280;4026;43.652;24.906;2022-09-09T10:24:07;99066.97;;;34.23;36.31
7962;BME280;4026;43.652;24.906;2022-09-09T10:26:44;99085.03;;;34.31;35.80
7962;BME280;4026;43.652;24.906;2022-09-09T10:29:27;99079.72;;;34.26;33.77
7962;BME280;4026;43.652;24.906;2022-09-09T10:32:05;99079.16;;;34.55;33.87
7962;BME280;4026;43.652;24.906;2022-09-09T10:34:52;99082.88;;;34.43;33.68
7962;BME280;4026;43.652;24.906;2022-09-09T10:37:34;99081.00;;;34.75;34.22
7962;BME280;4026;43.652;24.906;2022-09-09T10:40:20;99085.97;;;35.07;35.88
7962;BME280;4026;43.652;24.906;2022-09-09T10:42:52;99083.84;;;35.09;32.70
7962;BME280;4026;43.652;24.906;2022-09-09T10:45:29;99073.94;;;35.20;32.92
7962;BME280;4026;43.652;24.906;2022-09-09T10:48:27;99072.91;;;35.10;33.10
7962;BME280;4026;43.652;24.906;2022-09-09T10:51:04;99075.84;;;35.04;36.69
7962;BME280;4026;43.652;24.906;2022-09-09T10:53:45;99079.69;;;34.21;34.73
7962;BME280;4026;43.652;24.906;2022-09-09T10:56:16;99079.19;;;34.14;35.37
7962;BME280;4026;43.652;24.906;2022-09-09T10:58:48;99071.44;;;33.92;36.72
7962;BME280;4026;43.652;24.906;2022-09-09T11:01:21;99068.97;;;33.49;36.37
7962;BME280;4026;43.652;24.906;2022-09-09T11:03:54;99068.44;;;33.37;37.25
7962;BME280;4026;43.652;24.906;2022-09-09T11:06:26;99071.22;;;33.10;37.21
7962;BME280;4026;43.652;24.906;2022-09-09T11:08:55;99067.03;;;32.72;40.01
7962;BME280;4026;43.652;24.906;2022-09-09T11:11:28;99070.88;;;32.49;38.29
7962;BME280;4026;43.652;24.906;2022-09-09T11:14:00;99075.88;;;32.45;38.96
7962;BME280;4026;43.652;24.906;2022-09-09T11:16:33;99081.19;;;32.45;39.40
7962;BME280;4026;43.652;24.906;2022-09-09T11:19:12;99083.53;;;32.09;39.56
7962;BME280;4026;43.652;24.906;2022-09-09T11:21:45;99075.22;;;31.73;39.83
7962;BME280;4026;43.652;24.906;2022-09-09T11:24:15;99072.22;;;31.65;40.75
7962;BME280;4026;43.652;24.906;2022-09-09T11:26:49;99066.34;;;31.85;41.77
7962;BME280;4026;43.652;24.906;2022-09-09T11:32:24;99070.28;;;31.55;40.79
7962;BME280;4026;43.652;24.906;2022-09-09T11:34:57;99072.84;;;31.45;42.28
7962;BME280;4026;43.652;24.906;2022-09-09T11:37:44;99065.00;;;31.11;40.65
7962;BME280;4026;43.652;24.906;2022-09-09T11:40:21;99067.50;;;31.01;40.66
7962;BME280;4026;43.652;24.906;2022-09-09T11:43:01;99069.72;;;31.09;41.57
7962;BME280;4026;43.652;24.906;2022-09-09T11:45:30;99076.13;;;31.13;42.84
7962;BME280;4026;43.652;24.906;2022-09-09T11:48:00;99075.25;;;31.29;42.33
7962;BME280;4026;43.652;24.906;2022-09-09T11:50:32;99066.56;;;31.07;41.03
7962;BME280;4026;43.652;24.906;2022-09-09T11:53:05;99073.13;;;31.04;42.26
7962;BME280;4026;43.652;24.906;2022-09-09T11:55:34;99069.47;;;31.32;44.79
7962;BME280;4026;43.652;24.906;2022-09-09T11:58:03;99065.59;;;31.18;42.72
7962;BME280;4026;43.652;24.906;2022-09-09T12:00:34;99065.50;;;31.08;43.34
7962;BME280;4026;43.652;24.906;2022-09-09T12:03:04;99067.66;;;31.11;42.84
7962;BME280;4026;43.652;24.906;2022-09-09T12:05:36;99058.75;;;30.78;42.73
7962;BME280;4026;43.652;24.906;2022-09-09T12:08:05;99063.88;;;30.68;45.14
7962;BME280;4026;43.652;24.906;2022-09-09T12:10:38;99058.38;;;30.70;44.65
7962;BME280;4026;43.652;24.906;2022-09-09T12:13:14;99059.44;;;30.52;44.35
7962;BME280;4026;43.652;24.906;2022-09-09T12:15:47;99072.72;;;30.40;45.24
7962;BME280;4026;43.652;24.906;2022-09-09T12:18:22;99073.34;;;30.30;44.55
7962;BME280;4026;43.652;24.906;2022-09-09T12:20:59;99064.34;;;30.26;45.50
7962;BME280;4026;43.652;24.906;2022-09-09T12:23:37;99067.25;;;30.13;45.46
7962;BME280;4026;43.652;24.906;2022-09-09T12:26:24;99057.66;;;30.07;44.69
7962;BME280;4026;43.652;24.906;2022-09-09T12:29:04;99055.00;;;30.07;45.21
7962;BME280;4026;43.652;24.906;2022-09-09T12:31:40;99050.31;;;30.09;44.00
7962;BME280;4026;43.652;24.906;2022-09-09T12:34:15;99053.88;;;30.31;45.85
7962;BME280;4026;43.652;24.906;2022-09-09T12:36:44;99045.59;;;30.44;45.04
7962;BME280;4026;43.652;24.906;2022-09-09T12:39:19;99042.97;;;30.28;45.55
7962;BME280;4026;43.652;24.906;2022-09-09T12:41:51;99033.06;;;30.35;46.72
7962;BME280;4026;43.652;24.906;2022-09-09T12:44:23;99027.00;;;30.34;45.26
7962;BME280;4026;43.652;24.906;2022-09-09T12:46:51;99022.22;;;30.31;44.32
7962;BME280;4026;43.652;24.906;2022-09-09T12:49:28;99033.22;;;30.28;45.72
7962;BME280;4026;43.652;24.906;2022-09-09T12:51:56;99026.34;;;30.27;44.98
7962;BME280;4026;43.652;24.906;2022-09-09T12:54:24;99024.56;;;30.16;46.78
7962;BME280;4026;43.652;24.906;2022-09-09T12:56:51;99028.88;;;29.88;45.25
7962;BME280;4026;43.652;24.906;2022-09-09T12:59:23;99023.53;;;29.83;46.28
7962;BME280;4026;43.652;24.906;2022-09-09T13:01:55;99016.72;;;29.87;46.91
7962;BME280;4026;43.652;24.906;2022-09-09T13:04:23;99016.25;;;29.90;46.83
7962;BME280;4026;43.652;24.906;2022-09-09T13:06:51;99009.84;;;29.69;45.81
7962;BME280;4026;43.652;24.906;2022-09-09T13:09:19;99008.88;;;29.75;47.54
7962;BME280;4026;43.652;24.906;2022-09-09T13:11:48;99008.84;;;29.59;46.14
7962;BME280;4026;43.652;24.906;2022-09-09T13:14:19;99008.19;;;29.51;46.67
7962;BME280;4026;43.652;24.906;2022-09-09T13:16:55;99006.75;;;29.32;47.69
7962;BME280;4026;43.652;24.906;2022-09-09T13:19:23;99002.00;;;29.17;48.91
7962;BME280;4026;43.652;24.906;2022-09-09T13:21:55;99008.53;;;29.15;48.06
7962;BME280;4026;43.652;24.906;2022-09-09T13:24:27;99011.09;;;29.09;49.50
7962;BME280;4026;43.652;24.906;2022-09-09T13:26:55;99012.09;;;28.97;48.21
7962;BME280;4026;43.652;24.906;2022-09-09T13:29:23;99008.72;;;28.73;49.64
7962;BME280;4026;43.652;24.906;2022-09-09T13:31:50;99011.16;;;28.74;49.02
7962;BME280;4026;43.652;24.906;2022-09-09T13:34:29;99012.03;;;28.56;50.35
7962;BME280;4026;43.652;24.906;2022-09-09T13:37:00;99013.19;;;28.37;48.79